Impacts TAF Board
For situational awareness. Not to be used for flight planning purposes.
IDs:

KPIT - Pittsburgh Intl, PA, US

Issued at 2359 UTC 23 Apr 2019
Updated at 0239 UTC 24 Apr 2019
Potential Impact None Slight Moderate High
Time<<25/03Z 25/04Z 25/05Z 25/06Z 25/07Z 25/08Z 25/09Z 25/10Z 25/11Z 25/12Z 25/13Z 25/14Z 25/15Z
Type PRVL PRVL PRVL
VIS >6 >6 >6
CIG 250 250 250
Cover BKN BKN BKN
FltCat VFR VFR VFR
WX -- -- --
WDir 280 280 280
WSpd 6 6 6
WGst -- -- --
Raw TAF
KPIT 232359Z 2400/2506 27012G18KT P6SM BKN035
  TEMPO 2406/2410 BKN015
  FM241500 28006KT P6SM BKN250


METAR Board
Radar Display
Forecast Discussion
For situational awareness. Not to be used for flight planning purposes.